createdAt,value
2023-05-09T00:00:51.484Z,0.00
2023-05-09T00:01:51.547Z,0.00
2023-05-09T00:02:51.611Z,0.00
2023-05-09T00:03:51.641Z,0.00
2023-05-09T00:04:51.585Z,0.00
2023-05-09T00:05:51.553Z,0.00
2023-05-09T00:06:51.579Z,0.00
2023-05-09T00:07:51.594Z,0.00
2023-05-09T00:08:51.594Z,0.00
2023-05-09T00:09:51.612Z,0.00
2023-05-09T00:10:51.622Z,0.00
2023-05-09T00:11:51.639Z,0.00
2023-05-09T00:12:51.697Z,0.00
2023-05-09T00:13:51.664Z,0.00
2023-05-09T00:14:51.694Z,0.00
2023-05-09T00:15:51.692Z,0.00
2023-05-09T00:16:51.775Z,0.00
2023-05-09T00:17:51.735Z,0.00
2023-05-09T00:18:51.734Z,0.00
2023-05-09T00:19:51.762Z,0.00
2023-05-09T00:20:51.762Z,0.00
2023-05-09T00:21:51.774Z,0.00
2023-05-09T00:22:51.790Z,0.00
2023-05-09T00:23:51.818Z,0.00
2023-05-09T00:24:51.818Z,0.00
2023-05-09T00:25:51.831Z,0.00
2023-05-09T00:26:51.848Z,0.00
2023-05-09T00:27:51.860Z,0.00
2023-05-09T00:28:51.873Z,0.00
2023-05-09T00:29:51.901Z,0.00
2023-05-09T00:30:51.900Z,0.00
2023-05-09T00:31:51.935Z,0.00
2023-05-09T00:32:51.985Z,0.00
2023-05-09T00:33:51.939Z,0.00
2023-05-09T00:34:51.959Z,0.00
2023-05-09T00:35:51.970Z,0.00
2023-05-09T00:36:51.985Z,0.00
2023-05-09T00:37:51.997Z,0.00
2023-05-09T00:38:52.014Z,0.00
2023-05-09T00:39:52.023Z,0.00
2023-05-09T00:40:52.041Z,0.00
2023-05-09T00:41:52.053Z,0.00
2023-05-09T00:42:52.065Z,0.00
2023-05-09T00:43:52.080Z,0.00
2023-05-09T00:44:52.099Z,0.00
2023-05-09T00:45:52.159Z,0.00
2023-05-09T00:46:52.120Z,0.00
2023-05-09T00:47:52.171Z,0.00
2023-05-09T00:48:52.148Z,0.00
2023-05-09T00:49:52.161Z,0.00
2023-05-09T00:50:52.176Z,0.00
2023-05-09T00:51:52.192Z,0.00
2023-05-09T00:52:52.212Z,0.00
2023-05-09T00:53:52.216Z,0.00
2023-05-09T00:54:52.230Z,0.00
2023-05-09T00:55:52.246Z,0.00
2023-05-09T00:56:52.256Z,0.00
2023-05-09T00:57:52.270Z,0.00
2023-05-09T00:58:52.288Z,0.00
2023-05-09T00:59:52.299Z,0.00
2023-05-09T01:00:52.315Z,0.00
2023-05-09T01:01:52.359Z,0.00
2023-05-09T01:02:52.417Z,0.00
2023-05-09T01:03:52.399Z,0.00
2023-05-09T01:04:52.366Z,0.00
2023-05-09T01:05:52.387Z,0.00
2023-05-09T01:06:52.394Z,0.00
2023-05-09T01:07:52.405Z,0.00
2023-05-09T01:08:52.422Z,0.00
2023-05-09T01:09:52.443Z,0.00
2023-05-09T01:10:52.448Z,0.00
2023-05-09T01:11:52.461Z,0.00
2023-05-09T01:12:52.518Z,0.00
2023-05-09T01:13:52.505Z,0.00
2023-05-09T01:14:52.507Z,0.00
2023-05-09T01:15:52.548Z,0.00
2023-05-09T01:16:52.534Z,0.00
2023-05-09T01:17:52.562Z,0.00
2023-05-09T01:18:52.558Z,0.00
2023-05-09T01:19:52.582Z,0.00
2023-05-09T01:20:52.586Z,0.00
2023-05-09T01:21:52.607Z,0.00
2023-05-09T01:22:52.612Z,0.00
2023-05-09T01:23:52.635Z,0.00
2023-05-09T01:24:52.640Z,0.00
2023-05-09T01:25:52.650Z,0.00
2023-05-09T01:26:52.664Z,0.00
2023-05-09T01:27:52.684Z,0.00
2023-05-09T01:28:52.702Z,0.00
2023-05-09T01:29:52.705Z,0.00
2023-05-09T01:30:52.720Z,0.00
2023-05-09T01:31:52.737Z,0.00
2023-05-09T01:32:52.824Z,0.00
2023-05-09T01:33:52.762Z,0.00
2023-05-09T01:34:52.770Z,0.00
2023-05-09T01:35:52.785Z,0.00
2023-05-09T01:36:52.801Z,0.00
2023-05-09T01:37:52.813Z,0.00
2023-05-09T01:38:52.824Z,0.00
2023-05-09T01:39:52.840Z,0.00
2023-05-09T01:40:52.853Z,0.00
2023-05-09T01:41:52.867Z,0.00
2023-05-09T01:42:52.880Z,0.00
2023-05-09T01:43:52.934Z,0.00
2023-05-09T01:44:52.907Z,0.00
2023-05-09T01:45:52.934Z,0.00
2023-05-09T01:46:52.993Z,0.00
2023-05-09T01:47:53.024Z,0.00
2023-05-09T01:48:52.959Z,0.00
2023-05-09T01:49:52.974Z,0.00
2023-05-09T01:50:52.987Z,0.00
2023-05-09T01:51:53.005Z,0.00
2023-05-09T01:52:53.016Z,0.00
2023-05-09T01:53:53.027Z,0.00
2023-05-09T01:54:53.044Z,0.00
2023-05-09T01:55:53.053Z,0.00
2023-05-09T01:56:53.075Z,0.00
2023-05-09T01:57:53.083Z,0.00
2023-05-09T01:58:53.093Z,0.00
2023-05-09T01:59:53.108Z,0.00
2023-05-09T02:00:53.145Z,0.00
2023-05-09T02:01:53.156Z,0.00
2023-05-09T02:02:53.363Z,0.00
2023-05-09T02:03:53.164Z,0.00
2023-05-09T02:04:53.174Z,0.00
2023-05-09T02:05:53.191Z,0.00
2023-05-09T02:06:53.201Z,0.00
2023-05-09T02:07:53.215Z,0.00
2023-05-09T02:08:53.229Z,0.00
2023-05-09T02:09:53.241Z,0.00
2023-05-09T02:10:53.262Z,0.00
2023-05-09T02:11:53.264Z,0.00
2023-05-09T02:12:53.329Z,0.00
2023-05-09T02:13:53.298Z,0.00
2023-05-09T02:14:53.302Z,0.00
2023-05-09T02:15:53.318Z,0.00
2023-05-09T02:16:53.367Z,0.00
2023-05-09T02:17:53.391Z,0.00
2023-05-09T02:18:53.372Z,0.00
2023-05-09T02:19:53.371Z,0.00
2023-05-09T02:20:53.396Z,0.00
2023-05-09T02:21:53.397Z,0.00
2023-05-09T02:22:53.415Z,0.00
2023-05-09T02:23:53.428Z,0.00
2023-05-09T02:24:53.449Z,0.00
2023-05-09T02:25:53.448Z,0.00
2023-05-09T02:26:53.468Z,0.00
2023-05-09T02:27:53.476Z,0.00
2023-05-09T02:28:53.509Z,0.00
2023-05-09T02:29:53.500Z,0.00
2023-05-09T02:30:53.520Z,0.00
2023-05-09T02:31:53.556Z,0.00
2023-05-09T02:32:53.582Z,0.00
2023-05-09T02:33:53.560Z,0.00
2023-05-09T02:34:53.578Z,0.00
2023-05-09T02:35:53.598Z,0.00
2023-05-09T02:36:53.591Z,0.00
2023-05-09T02:37:53.620Z,0.00
2023-05-09T02:38:53.631Z,0.00
2023-05-09T02:39:53.637Z,0.00
2023-05-09T02:40:53.648Z,4.00
2023-05-09T02:41:53.659Z,4.00
2023-05-09T02:42:53.681Z,4.00
2023-05-09T02:43:53.684Z,0.00
2023-05-09T02:44:53.713Z,0.00
2023-05-09T02:45:53.723Z,4.00
2023-05-09T02:46:53.729Z,4.00
2023-05-09T02:47:53.820Z,4.00
2023-05-09T02:48:53.770Z,4.00
2023-05-09T02:49:53.763Z,4.00
2023-05-09T02:50:53.775Z,8.00
2023-05-09T02:51:53.793Z,8.00
2023-05-09T02:52:53.849Z,8.00
2023-05-09T02:53:53.814Z,8.00
2023-05-09T02:54:53.827Z,8.00
2023-05-09T02:55:53.864Z,12.00
2023-05-09T02:56:53.860Z,12.00
2023-05-09T02:58:05.336Z,16.00
2023-05-09T02:58:53.878Z,20.00
2023-05-09T02:59:53.890Z,20.00
2023-05-09T03:00:53.904Z,24.00
2023-05-09T03:01:53.955Z,28.00
2023-05-09T03:02:53.989Z,32.00
2023-05-09T03:03:54.113Z,36.00
2023-05-09T03:04:53.956Z,40.00
2023-05-09T03:05:53.972Z,48.00
2023-05-09T03:06:53.985Z,52.00
2023-05-09T03:07:53.994Z,56.00
2023-05-09T03:08:54.005Z,68.00
2023-05-09T03:09:54.020Z,72.00
2023-05-09T03:10:54.035Z,84.00
2023-05-09T03:11:54.046Z,92.00
2023-05-09T03:12:54.082Z,104.00
2023-05-09T03:13:54.073Z,112.00
2023-05-09T03:14:54.086Z,128.00
2023-05-09T03:15:54.130Z,140.00
2023-05-09T03:16:54.126Z,156.00
2023-05-09T03:17:54.181Z,168.00
2023-05-09T03:18:54.136Z,188.00
2023-05-09T03:19:54.147Z,204.00
2023-05-09T03:20:54.161Z,220.00
2023-05-09T03:21:54.174Z,244.00
2023-05-09T03:22:54.200Z,264.00
2023-05-09T03:23:54.200Z,284.00
2023-05-09T03:24:54.213Z,304.00
2023-05-09T03:25:54.237Z,328.00
2023-05-09T03:26:54.237Z,356.00
2023-05-09T03:27:54.265Z,380.00
2023-05-09T03:28:54.270Z,404.00
2023-05-09T03:29:54.285Z,432.00
2023-05-09T03:30:54.287Z,460.00
2023-05-09T03:31:54.325Z,488.00
2023-05-09T03:32:54.357Z,516.00
2023-05-09T03:33:54.332Z,548.00
2023-05-09T03:34:54.343Z,576.00
2023-05-09T03:35:54.355Z,608.00
2023-05-09T03:36:54.374Z,640.00
2023-05-09T03:37:54.381Z,672.00
2023-05-09T03:38:54.394Z,700.00
2023-05-09T03:39:54.409Z,736.00
2023-05-09T03:40:54.416Z,764.00
2023-05-09T03:41:54.431Z,796.00
2023-05-09T03:42:54.444Z,828.00
2023-05-09T03:43:54.455Z,860.00
2023-05-09T03:44:54.469Z,896.00
2023-05-09T03:45:54.486Z,928.00
2023-05-09T03:46:54.556Z,964.00
2023-05-09T03:47:54.532Z,996.00
2023-05-09T03:48:54.525Z,1028.00
2023-05-09T03:49:54.528Z,1060.00
2023-05-09T03:50:54.546Z,1096.00
2023-05-09T03:51:54.596Z,1124.00
2023-05-09T03:52:54.574Z,1160.00
2023-05-09T03:53:54.583Z,1192.00
2023-05-09T03:54:54.596Z,1224.00
2023-05-09T03:55:54.610Z,1256.00
2023-05-09T03:56:54.620Z,1288.00
2023-05-09T03:57:54.642Z,1320.00
2023-05-09T03:58:54.647Z,1352.00
2023-05-09T03:59:54.662Z,1384.00
2023-05-09T04:00:54.672Z,1416.00
2023-05-09T04:01:54.712Z,1444.00
2023-05-09T04:02:54.754Z,1476.00
2023-05-09T04:03:54.782Z,1504.00
2023-05-09T04:04:54.748Z,1536.00
2023-05-09T04:05:54.741Z,1564.00
2023-05-09T04:06:54.748Z,1596.00
2023-05-09T04:07:54.764Z,1628.00
2023-05-09T04:08:54.776Z,1652.00
2023-05-09T04:09:54.784Z,1680.00
2023-05-09T04:10:54.798Z,1712.00
2023-05-09T04:11:54.813Z,1740.00
2023-05-09T04:12:54.848Z,1768.00
2023-05-09T04:13:54.841Z,1796.00
2023-05-09T04:14:54.853Z,1828.00
2023-05-09T04:15:54.863Z,1856.00
2023-05-09T04:16:54.927Z,1884.00
2023-05-09T04:17:54.913Z,1908.00
2023-05-09T04:18:54.903Z,1944.00
2023-05-09T04:19:54.927Z,1964.00
2023-05-09T04:20:54.928Z,1992.00
2023-05-09T04:21:54.941Z,2024.00
2023-05-09T04:22:54.953Z,2044.00
2023-05-09T04:23:54.973Z,2072.00
2023-05-09T04:24:54.982Z,2096.00
2023-05-09T04:25:54.993Z,2128.00
2023-05-09T04:26:55.004Z,2156.00
2023-05-09T04:27:55.014Z,2188.00
2023-05-09T04:28:55.049Z,2208.00
2023-05-09T04:29:55.048Z,2232.00
2023-05-09T04:30:55.108Z,2260.00
2023-05-09T04:31:55.297Z,2284.00
2023-05-09T04:32:55.143Z,2316.00
2023-05-09T04:33:55.092Z,2340.00
2023-05-09T04:34:55.105Z,2372.00
2023-05-09T04:35:55.113Z,2400.00
2023-05-09T04:36:55.133Z,2424.00
2023-05-09T04:37:55.144Z,2448.00
2023-05-09T04:38:55.157Z,2468.00
2023-05-09T04:39:55.170Z,2488.00
2023-05-09T04:40:55.181Z,2516.00
2023-05-09T04:41:55.197Z,2532.00
2023-05-09T04:42:55.210Z,2556.00
2023-05-09T04:43:55.218Z,2580.00
2023-05-09T04:44:55.239Z,2604.00
2023-05-09T04:45:55.264Z,2628.00
2023-05-09T04:46:55.257Z,2648.00
2023-05-09T04:47:55.308Z,2680.00
2023-05-09T04:48:55.285Z,2704.00
2023-05-09T04:49:55.305Z,2728.00
2023-05-09T04:50:55.309Z,2748.00
2023-05-09T04:51:55.327Z,2772.00
2023-05-09T04:52:55.340Z,2804.00
2023-05-09T04:53:55.352Z,2856.00
2023-05-09T04:54:55.360Z,2860.00
2023-05-09T04:55:55.380Z,2892.00
2023-05-09T04:57:03.156Z,2940.00
2023-05-09T04:57:55.403Z,2980.00
2023-05-09T04:58:55.420Z,2964.00
2023-05-09T04:59:55.425Z,2992.00
2023-05-09T05:00:55.437Z,3068.00
2023-05-09T05:01:55.487Z,3044.00
2023-05-09T05:02:55.504Z,3020.00
2023-05-09T05:03:55.502Z,3040.00
2023-05-09T05:05:06.231Z,3060.00
2023-05-09T05:05:55.510Z,3084.00
2023-05-09T05:06:55.523Z,3100.00
2023-05-09T05:07:55.547Z,3124.00
2023-05-09T05:08:55.545Z,3152.00
2023-05-09T05:09:55.586Z,3192.00
2023-05-09T05:10:55.571Z,3196.00
2023-05-09T05:12:01.282Z,3220.00
2023-05-09T05:12:55.626Z,3240.00
2023-05-09T05:13:55.617Z,3276.00
2023-05-09T05:14:55.628Z,3284.00
2023-05-09T05:15:55.705Z,3656.00
2023-05-09T05:16:55.646Z,3976.00
2023-05-09T05:17:55.702Z,3992.00
2023-05-09T05:18:55.672Z,3404.00
2023-05-09T05:19:55.693Z,3388.00
2023-05-09T05:20:55.703Z,3400.00
2023-05-09T05:21:55.722Z,3436.00
2023-05-09T05:22:55.725Z,3448.00
2023-05-09T05:23:55.748Z,3524.00
2023-05-09T05:24:55.755Z,3716.00
2023-05-09T05:25:55.763Z,3672.00
2023-05-09T05:26:55.781Z,3556.00
2023-05-09T05:27:55.792Z,3576.00
2023-05-09T05:28:55.815Z,4592.00
2023-05-09T05:29:55.828Z,7552.00
2023-05-09T05:30:55.838Z,12760.00
2023-05-09T05:31:55.956Z,17152.00
2023-05-09T05:32:55.942Z,20192.00
2023-05-09T05:33:55.875Z,26432.00
2023-05-09T05:34:55.884Z,19360.00
2023-05-09T05:35:55.907Z,15392.00
2023-05-09T05:36:55.916Z,6424.00
2023-05-09T05:37:55.948Z,5336.00
2023-05-09T05:38:55.950Z,8092.00
2023-05-09T05:39:55.967Z,17376.00
2023-05-09T05:40:55.972Z,16320.00
2023-05-09T05:41:55.981Z,10596.00
2023-05-09T05:42:55.996Z,8756.00
2023-05-09T05:43:56.014Z,6880.00
2023-05-09T05:44:56.027Z,6268.00
2023-05-09T05:45:56.088Z,9128.00
2023-05-09T05:46:56.054Z,9448.00
2023-05-09T05:47:56.172Z,7068.00
2023-05-09T05:48:56.083Z,7528.00
2023-05-09T05:49:56.103Z,5320.00
2023-05-09T05:50:56.111Z,4452.00
2023-05-09T05:51:56.132Z,6948.00
2023-05-09T05:52:56.144Z,8528.00
2023-05-09T05:53:56.159Z,5860.00
2023-05-09T05:54:56.177Z,5868.00
2023-05-09T05:55:56.187Z,6168.00
2023-05-09T05:56:56.209Z,7816.00
2023-05-09T05:57:56.222Z,11804.00
2023-05-09T05:58:56.233Z,13508.00
2023-05-09T05:59:56.258Z,20672.00
2023-05-09T06:00:56.265Z,12180.00
2023-05-09T06:01:56.292Z,11892.00
2023-05-09T06:02:56.365Z,9568.00
2023-05-09T06:03:56.474Z,6108.00
2023-05-09T06:04:56.344Z,5864.00
2023-05-09T06:05:56.335Z,5272.00
2023-05-09T06:06:56.346Z,5628.00
2023-05-09T06:07:56.380Z,7820.00
2023-05-09T06:08:56.385Z,11636.00
2023-05-09T06:09:56.399Z,10880.00
2023-05-09T06:10:56.415Z,13072.00
2023-05-09T06:11:56.433Z,11020.00
2023-05-09T06:12:56.484Z,11768.00
2023-05-09T06:13:56.453Z,22144.00
2023-05-09T06:14:56.468Z,27584.00
2023-05-09T06:15:59.763Z,30464.00
2023-05-09T06:16:56.545Z,23136.00
2023-05-09T06:17:56.587Z,22016.00
2023-05-09T06:18:56.546Z,17440.00
2023-05-09T06:19:56.546Z,18784.00
2023-05-09T06:20:56.565Z,25920.00
2023-05-09T06:21:56.585Z,25248.00
2023-05-09T06:22:56.596Z,38336.00
2023-05-09T06:24:56.626Z,45152.00
2023-05-09T06:25:56.643Z,44896.00
2023-05-09T06:26:56.660Z,44608.00
2023-05-09T06:27:56.696Z,44512.00
2023-05-09T06:28:56.692Z,44384.00
2023-05-09T06:29:56.719Z,44256.00
2023-05-09T06:30:56.747Z,43136.00
2023-05-09T06:31:56.932Z,43680.00
2023-05-09T06:32:56.834Z,43904.00
2023-05-09T06:33:56.788Z,43744.00
2023-05-09T06:34:56.806Z,43584.00
2023-05-09T06:35:56.828Z,45120.00
2023-05-09T06:36:56.859Z,45248.00
2023-05-09T06:37:56.868Z,46304.00
2023-05-09T06:38:56.885Z,45760.00
2023-05-09T06:39:56.905Z,44448.00
2023-05-09T06:40:56.928Z,45888.00
2023-05-09T06:41:56.946Z,47552.00
2023-05-09T06:42:56.964Z,49280.00
2023-05-09T06:43:56.986Z,48064.00
2023-05-09T06:44:57.034Z,46496.00
2023-05-09T06:45:57.071Z,45632.00
2023-05-09T06:46:57.047Z,45632.00
2023-05-09T06:47:57.087Z,46848.00
2023-05-09T06:48:57.094Z,44864.00
2023-05-09T06:49:57.112Z,43680.00
2023-05-09T06:50:57.136Z,43104.00
2023-05-09T06:51:57.164Z,39200.00
2023-05-09T06:52:57.178Z,36064.00
2023-05-09T06:53:57.200Z,34880.00
2023-05-09T06:54:57.219Z,33792.00
2023-05-09T06:55:57.252Z,33408.00
2023-05-09T06:56:57.263Z,33056.00
2023-05-09T06:57:57.287Z,33152.00
2023-05-09T06:58:57.316Z,33184.00
2023-05-09T06:59:57.349Z,33280.00
2023-05-09T07:00:57.351Z,33344.00
2023-05-09T07:01:57.466Z,33152.00
2023-05-09T07:02:57.476Z,33216.00
2023-05-09T07:03:57.422Z,33216.00
2023-05-09T07:04:57.477Z,33248.00
2023-05-09T07:05:57.465Z,33216.00
2023-05-09T07:06:57.492Z,33440.00
2023-05-09T07:07:57.515Z,33664.00
2023-05-09T07:08:57.539Z,33856.00
2023-05-09T07:10:07.341Z,34112.00
2023-05-09T07:10:57.582Z,34304.00
2023-05-09T07:11:57.604Z,34336.00
2023-05-09T07:12:57.641Z,34688.00
2023-05-09T07:13:57.653Z,35264.00
2023-05-09T07:14:57.670Z,36224.00
2023-05-09T07:15:57.715Z,36864.00
2023-05-09T07:17:09.796Z,36544.00
2023-05-09T07:17:57.764Z,36320.00
2023-05-09T07:18:57.762Z,36512.00
2023-05-09T07:19:57.790Z,36800.00
2023-05-09T07:20:57.822Z,36832.00
2023-05-09T07:21:57.834Z,36832.00
2023-05-09T07:22:57.917Z,37088.00
2023-05-09T07:23:57.882Z,37408.00
2023-05-09T07:24:57.907Z,37568.00
2023-05-09T07:25:57.930Z,37920.00
2023-05-09T07:26:57.952Z,38240.00
2023-05-09T07:27:57.997Z,38464.00
2023-05-09T07:28:58.016Z,38688.00
2023-05-09T07:29:58.029Z,38944.00
2023-05-09T07:30:58.066Z,39584.00
2023-05-09T07:31:58.107Z,39552.00
2023-05-09T07:32:58.129Z,39904.00
2023-05-09T07:33:58.135Z,40192.00
2023-05-09T07:34:58.141Z,40352.00
2023-05-09T07:35:58.167Z,40736.00
2023-05-09T07:36:58.192Z,41024.00
2023-05-09T07:37:58.221Z,41472.00
2023-05-09T07:38:58.236Z,41792.00
2023-05-09T07:39:58.263Z,41792.00
2023-05-09T07:40:58.289Z,42176.00
2023-05-09T07:41:58.307Z,42400.00
2023-05-09T07:42:58.333Z,42496.00
2023-05-09T07:43:58.358Z,42720.00
2023-05-09T07:44:58.376Z,42816.00
2023-05-09T07:45:58.435Z,43104.00
2023-05-09T07:46:58.438Z,43488.00
2023-05-09T07:47:58.484Z,43776.00
2023-05-09T07:48:58.478Z,44128.00
2023-05-09T07:49:58.506Z,44352.00
2023-05-09T07:50:58.523Z,44448.00
2023-05-09T07:51:58.550Z,44480.00
2023-05-09T07:52:58.596Z,44800.00
2023-05-09T07:53:58.611Z,44960.00
2023-05-09T07:54:58.649Z,45184.00
2023-05-09T07:55:58.664Z,45376.00
2023-05-09T07:56:58.676Z,45792.00
2023-05-09T07:57:58.699Z,45952.00
2023-05-09T07:58:58.729Z,46112.00
2023-05-09T07:59:58.769Z,46400.00
2023-05-09T08:00:58.777Z,46880.00
2023-05-09T08:01:58.819Z,47200.00
2023-05-09T08:02:58.898Z,46912.00
2023-05-09T08:03:58.967Z,47488.00
2023-05-09T08:04:58.878Z,47552.00
2023-05-09T08:05:58.926Z,47904.00
2023-05-09T08:06:58.931Z,48512.00
2023-05-09T08:07:58.956Z,48448.00
2023-05-09T08:08:58.982Z,48640.00
2023-05-09T08:09:59.011Z,49088.00
2023-05-09T08:10:59.030Z,49120.00
2023-05-09T08:11:59.057Z,49152.00
2023-05-09T08:12:59.105Z,49024.00
2023-05-09T08:13:59.120Z,47232.00
2023-05-09T08:14:59.137Z,46688.00
2023-05-09T08:15:59.233Z,46528.00
2023-05-09T08:16:59.206Z,46304.00
2023-05-09T08:17:59.331Z,46240.00
2023-05-09T08:18:59.265Z,45920.00
2023-05-09T08:19:59.286Z,45888.00
2023-05-09T08:20:59.295Z,45472.00
2023-05-09T08:21:59.342Z,43840.00
2023-05-09T08:22:59.345Z,33056.00
2023-05-09T08:23:59.389Z,14080.00
2023-05-09T08:24:59.397Z,6860.00
2023-05-09T08:25:59.489Z,18592.00
2023-05-09T08:26:59.438Z,37728.00
2023-05-09T08:27:59.465Z,44672.00
2023-05-09T08:28:59.493Z,44480.00
2023-05-09T08:29:59.516Z,44672.00
2023-05-09T08:30:59.576Z,44512.00
2023-05-09T08:31:59.594Z,46144.00
2023-05-09T08:32:59.630Z,43584.00
2023-05-09T08:33:59.609Z,42592.00
2023-05-09T08:34:59.642Z,41216.00
2023-05-09T08:35:59.657Z,40288.00
2023-05-09T08:36:59.674Z,39520.00
2023-05-09T08:37:59.701Z,38080.00
2023-05-09T08:38:59.720Z,35904.00
2023-05-09T08:39:59.751Z,26464.00
2023-05-09T08:40:59.779Z,11432.00
2023-05-09T08:41:59.803Z,9916.00
2023-05-09T08:42:59.812Z,24000.00
2023-05-09T08:43:59.841Z,36128.00
2023-05-09T08:44:59.856Z,37344.00
2023-05-09T08:46:00.005Z,37440.00
2023-05-09T08:46:59.946Z,37664.00
2023-05-09T08:47:59.983Z,38304.00
2023-05-09T08:48:59.944Z,39232.00
2023-05-09T08:49:59.968Z,39616.00
2023-05-09T08:51:00.015Z,39968.00
2023-05-09T08:52:00.031Z,40448.00
2023-05-09T08:53:00.029Z,40928.00
2023-05-09T08:54:00.057Z,41376.00
2023-05-09T08:55:00.083Z,42272.00
2023-05-09T08:56:00.131Z,43328.00
2023-05-09T08:57:00.114Z,44096.00
2023-05-09T08:58:00.175Z,44800.00
2023-05-09T08:59:00.166Z,45472.00
2023-05-09T09:00:00.212Z,46496.00
2023-05-09T09:01:00.224Z,46976.00
2023-05-09T09:02:00.277Z,48000.00
2023-05-09T09:03:00.268Z,48736.00
2023-05-09T09:04:00.268Z,49728.00
2023-05-09T09:05:00.382Z,50720.00
2023-05-09T09:06:00.320Z,51904.00
2023-05-09T09:07:00.348Z,52512.00
2023-05-09T09:08:00.352Z,53792.00
2023-05-09T09:09:00.404Z,54176.00
2023-05-09T09:10:00.411Z,55072.00
2023-05-09T09:11:00.423Z,55968.00
2023-05-09T09:12:00.462Z,56640.00
2023-05-09T09:13:00.508Z,57472.00
2023-05-09T09:14:00.491Z,58496.00
2023-05-09T09:15:00.515Z,59072.00
2023-05-09T09:16:00.644Z,59872.00
2023-05-09T09:17:00.622Z,60032.00
2023-05-09T09:18:00.612Z,60672.00
2023-05-09T09:19:00.595Z,60384.00
2023-05-09T09:20:00.620Z,57152.00
2023-05-09T09:21:00.640Z,35904.00
2023-05-09T09:22:00.665Z,13036.00
2023-05-09T09:23:00.686Z,19840.00
2023-05-09T09:24:00.709Z,46880.00
2023-05-09T09:25:00.731Z,61728.00
2023-05-09T09:26:00.796Z,62496.00
2023-05-09T09:27:00.786Z,62880.00
2023-05-09T09:28:00.807Z,62720.00
2023-05-09T09:29:00.827Z,62816.00
2023-05-09T09:30:00.847Z,62624.00
2023-05-09T09:31:00.876Z,62240.00
2023-05-09T09:32:00.937Z,61536.00
2023-05-09T09:33:01.014Z,61504.00
2023-05-09T09:34:00.934Z,60704.00
2023-05-09T09:35:00.960Z,59680.00
2023-05-09T09:36:01.011Z,58432.00
2023-05-09T09:37:01.008Z,57024.00
2023-05-09T09:38:01.043Z,55360.00
2023-05-09T09:39:01.082Z,52608.00
2023-05-09T09:40:01.105Z,50208.00
2023-05-09T09:41:01.106Z,47488.00
2023-05-09T09:42:01.127Z,44960.00
2023-05-09T09:43:01.157Z,41984.00
2023-05-09T09:44:01.186Z,38656.00
2023-05-09T09:45:01.212Z,31936.00
2023-05-09T09:46:01.255Z,28576.00
2023-05-09T09:47:01.243Z,39712.00
2023-05-09T09:48:01.333Z,56224.00
2023-05-09T09:49:01.296Z,63616.00
2023-05-09T09:50:01.320Z,62400.00
2023-05-09T09:51:01.341Z,51392.00
2023-05-09T09:52:01.371Z,34752.00
2023-05-09T09:53:01.400Z,29696.00
2023-05-09T09:54:01.423Z,43904.00
2023-05-09T09:55:01.446Z,59456.00
2023-05-09T09:56:01.480Z,62048.00
2023-05-09T09:57:01.502Z,53440.00
2023-05-09T09:58:01.521Z,33632.00
2023-05-09T09:59:01.546Z,16136.00
2023-05-09T10:00:01.580Z,13192.00
2023-05-09T10:01:01.614Z,26624.00
2023-05-09T10:02:03.414Z,47360.00
2023-05-09T10:03:01.763Z,62144.00
2023-05-09T10:04:01.765Z,65632.00
2023-05-09T10:05:01.726Z,66048.00
2023-05-09T10:06:01.744Z,66720.00
2023-05-09T10:07:01.754Z,66720.00
2023-05-09T10:08:01.797Z,66560.00
2023-05-09T10:09:01.811Z,66816.00
2023-05-09T10:10:01.836Z,66784.00
2023-05-09T10:11:01.858Z,67104.00
2023-05-09T10:12:01.890Z,66560.00
2023-05-09T10:13:01.940Z,66752.00
2023-05-09T10:14:01.947Z,66592.00
2023-05-09T10:15:01.972Z,66432.00
2023-05-09T10:16:02.109Z,67456.00
2023-05-09T10:17:02.234Z,67040.00
2023-05-09T10:18:02.211Z,67168.00
2023-05-09T10:19:02.113Z,66784.00
2023-05-09T10:20:02.114Z,66592.00
2023-05-09T10:21:02.148Z,67072.00
2023-05-09T10:22:02.176Z,67200.00
2023-05-09T10:23:02.207Z,67040.00
2023-05-09T10:24:02.229Z,66848.00
2023-05-09T10:25:02.304Z,66560.00
2023-05-09T10:26:02.295Z,66784.00
2023-05-09T10:27:02.324Z,66144.00
2023-05-09T10:28:02.354Z,66592.00
2023-05-09T10:29:02.386Z,66688.00
2023-05-09T10:30:02.415Z,66944.00
2023-05-09T10:31:02.452Z,66816.00
2023-05-09T10:32:02.476Z,66240.00
2023-05-09T10:33:02.583Z,66528.00
2023-05-09T10:34:02.540Z,66048.00
2023-05-09T10:35:02.569Z,66656.00
2023-05-09T10:36:02.598Z,66560.00
2023-05-09T10:37:02.632Z,66208.00
2023-05-09T10:38:02.667Z,65568.00
2023-05-09T10:39:02.695Z,65504.00
2023-05-09T10:40:02.723Z,66560.00
2023-05-09T10:41:02.760Z,66528.00
2023-05-09T10:42:02.790Z,66656.00
2023-05-09T10:43:02.824Z,66368.00
2023-05-09T10:44:02.851Z,66752.00
2023-05-09T10:45:02.890Z,66528.00
2023-05-09T10:46:02.935Z,66336.00
2023-05-09T10:47:03.047Z,66752.00
2023-05-09T10:48:03.007Z,66752.00
2023-05-09T10:49:03.014Z,66336.00
2023-05-09T10:50:03.044Z,65920.00
2023-05-09T10:51:03.080Z,66144.00
2023-05-09T10:52:03.112Z,66048.00
2023-05-09T10:53:03.142Z,66176.00
2023-05-09T10:54:03.184Z,66176.00
2023-05-09T10:55:03.215Z,66528.00
2023-05-09T10:56:03.242Z,66112.00
2023-05-09T10:57:03.280Z,66304.00
2023-05-09T10:58:03.310Z,66208.00
2023-05-09T10:59:03.355Z,54784.00
2023-05-09T11:00:03.378Z,65888.00
2023-05-09T11:01:03.410Z,65856.00
2023-05-09T11:02:03.546Z,66624.00
2023-05-09T11:03:03.552Z,66144.00
2023-05-09T11:04:03.525Z,65600.00
2023-05-09T11:05:03.549Z,66720.00
2023-05-09T11:06:03.573Z,66592.00
2023-05-09T11:07:03.609Z,66240.00
2023-05-09T11:08:03.643Z,66048.00
2023-05-09T11:09:03.675Z,66048.00
2023-05-09T11:10:03.706Z,65952.00
2023-05-09T11:11:03.745Z,65760.00
2023-05-09T11:12:03.787Z,66304.00
2023-05-09T11:13:03.845Z,66240.00
2023-05-09T11:14:03.850Z,65984.00
2023-05-09T11:15:03.875Z,65984.00
2023-05-09T11:16:03.970Z,66048.00
2023-05-09T11:17:03.950Z,65664.00
2023-05-09T11:18:04.023Z,65728.00
2023-05-09T11:19:04.004Z,65312.00
2023-05-09T11:20:04.040Z,65696.00
2023-05-09T11:21:04.076Z,66080.00
2023-05-09T11:22:04.118Z,65696.00
2023-05-09T11:23:04.143Z,65952.00
2023-05-09T11:24:04.193Z,65664.00
2023-05-09T11:25:04.206Z,65536.00
2023-05-09T11:26:04.238Z,65088.00
2023-05-09T11:27:04.275Z,65472.00
2023-05-09T11:28:04.305Z,65152.00
2023-05-09T11:29:04.344Z,65568.00
2023-05-09T11:30:04.372Z,65248.00
2023-05-09T11:31:04.404Z,65024.00
2023-05-09T11:32:04.479Z,65120.00
2023-05-09T11:33:04.553Z,64992.00
2023-05-09T11:34:04.525Z,64608.00
2023-05-09T11:35:04.540Z,64736.00
2023-05-09T11:36:04.573Z,64928.00
2023-05-09T11:37:04.613Z,64384.00
2023-05-09T11:38:04.644Z,64416.00
2023-05-09T11:39:04.697Z,64480.00
2023-05-09T11:40:04.745Z,64448.00
2023-05-09T11:41:04.742Z,64000.00
2023-05-09T11:42:04.777Z,64000.00
2023-05-09T11:43:04.814Z,64128.00
2023-05-09T11:44:04.845Z,64256.00
2023-05-09T11:45:04.881Z,63712.00
2023-05-09T11:46:04.942Z,63808.00
2023-05-09T11:47:04.944Z,63168.00
2023-05-09T11:48:05.023Z,63520.00
2023-05-09T11:49:05.034Z,63200.00
2023-05-09T11:50:05.052Z,63424.00
2023-05-09T11:51:05.091Z,62912.00
2023-05-09T11:52:05.125Z,62944.00
2023-05-09T11:53:05.148Z,63200.00
2023-05-09T11:54:05.180Z,62688.00
2023-05-09T11:55:05.212Z,62464.00
2023-05-09T11:56:05.252Z,62048.00
2023-05-09T11:57:05.278Z,62432.00
2023-05-09T11:58:05.309Z,61824.00
2023-05-09T11:59:05.348Z,61952.00
2023-05-09T12:00:05.380Z,61920.00
2023-05-09T12:01:05.419Z,61440.00
2023-05-09T12:02:05.476Z,61440.00
2023-05-09T12:03:05.553Z,61152.00
2023-05-09T12:04:05.599Z,61376.00
2023-05-09T12:05:05.549Z,59648.00
2023-05-09T12:06:05.585Z,60768.00
2023-05-09T12:07:05.610Z,60768.00
2023-05-09T12:08:05.651Z,61024.00
2023-05-09T12:09:05.682Z,60576.00
2023-05-09T12:10:05.716Z,60224.00
2023-05-09T12:11:05.745Z,60032.00
2023-05-09T12:12:05.789Z,59968.00
2023-05-09T12:13:05.834Z,59392.00
2023-05-09T12:14:05.852Z,59424.00